Time;durP1;ratioP1;P1;durP2;ratioP2;P2;SDS_P1;SDS_P2;PMS_P1;PMS_P2;Temp;Humidity;BMP_temperature;BMP_pressure;BME280_temperature;BME280_humidity;BME280_pressure;Samples;Min_cycle;Max_cycle;Signal;HPM_P1;HPM_P2
2021/12/01 00:01:46;;;;;;;6.80;4.70;;;;;;;-0.40;67.53;96109.45;108011;1276;69540;-69
2021/12/01 00:04:16;;;;;;;9.20;6.50;;;;;;;-0.39;67.32;96104.63;107908;1276;59743;-69
2021/12/01 00:06:46;;;;;;;7.60;5.50;;;;;;;-0.37;67.17;96108.80;107939;1274;59793;-70
2021/12/01 00:09:16;;;;;;;9.10;6.30;;;;;;;-0.35;67.08;96102.36;107963;1274;72239;-68
2021/12/01 00:11:47;;;;;;;5.60;4.30;;;;;;;-0.35;67.08;96102.54;107898;1272;67689;-68
2021/12/01 00:14:17;;;;;;;8.40;6.20;;;;;;;-0.35;67.08;96109.03;108044;1272;69533;-68
2021/12/01 00:16:48;;;;;;;8.30;6.10;;;;;;;-0.29;66.99;96110.27;107907;1274;59793;-67
2021/12/01 00:19:18;;;;;;;9.70;5.80;;;;;;;-0.32;67.21;96106.33;107905;1274;59786;-70
2021/12/01 00:21:48;;;;;;;8.90;6.10;;;;;;;-0.26;67.08;96109.44;107988;1273;71750;-68
2021/12/01 00:24:19;;;;;;;7.40;6.40;;;;;;;-0.28;67.24;96114.31;107939;1272;68528;-68
2021/12/01 00:26:51;;;;;;;8.50;6.80;;;;;;;-0.24;67.20;96113.09;107742;1277;69643;-70
2021/12/01 00:29:21;;;;;;;7.70;5.50;;;;;;;-0.23;67.47;96110.82;107928;1275;59733;-69
2021/12/01 00:31:52;;;;;;;6.10;4.50;;;;;;;-0.23;67.57;96113.25;108072;1274;59772;-68
2021/12/01 00:34:22;;;;;;;8.30;6.00;;;;;;;-0.21;67.58;96111.41;107947;1276;71561;-68
2021/12/01 00:36:53;;;;;;;8.40;5.90;;;;;;;-0.20;67.73;96111.36;107938;1276;67858;-69
2021/12/01 00:39:23;;;;;;;;;;;;;;;-0.19;67.80;96107.36;107891;1274;69480;-68
2021/12/01 00:41:56;;;;;;;8.00;5.40;;;;;;;-0.19;68.01;96107.18;107982;1275;59659;-70
2021/12/01 00:44:33;;;;;;;8.40;5.90;;;;;;;-0.23;68.43;96108.45;107751;1272;59781;-68
2021/12/01 00:47:06;;;;;;;8.60;5.70;;;;;;;-0.27;68.60;96107.61;107937;1272;71372;-68
2021/12/01 00:49:37;;;;;;;6.80;5.50;;;;;;;-0.28;68.75;96106.78;107954;1271;68146;-67
2021/12/01 00:52:08;;;;;;;11.50;6.00;;;;;;;-0.25;69.00;96103.91;108067;1272;68667;-68
2021/12/01 00:54:40;;;;;;;9.40;6.10;;;;;;;-0.24;69.03;96102.14;107921;1275;59801;-67
2021/12/01 00:57:10;;;;;;;;;;;;;;;-0.21;69.17;96112.29;108038;1275;59798;-68
2021/12/01 00:59:41;;;;;;;9.50;6.80;;;;;;;-0.22;69.25;96110.94;108007;1275;70692;-68
2021/12/01 01:02:11;;;;;;;8.40;5.80;;;;;;;-0.22;69.42;96112.48;107975;1271;67818;-67
2021/12/01 01:04:41;;;;;;;;;;;;;;;-0.26;69.82;96107.39;107984;1276;67658;-66
2021/12/01 01:07:15;;;;;;;8.80;6.20;;;;;;;-0.22;69.72;96114.52;107932;1276;59808;-69
2021/12/01 01:09:46;;;;;;;6.30;5.10;;;;;;;-0.22;69.83;96117.83;108023;1275;59783;-68
2021/12/01 01:18:05;;;;;;;8.00;6.40;;;;;;;-0.22;69.97;96094.17;107989;1273;68706;-68
2021/12/01 01:20:35;;;;;;;7.10;5.90;;;;;;;-0.24;70.23;96088.12;107958;1275;59719;-68
2021/12/01 01:23:04;;;;;;;9.80;6.40;;;;;;;-0.23;70.16;96087.19;108043;1272;59720;-68
2021/12/01 01:25:35;;;;;;;;;;;;;;;-0.26;70.36;96087.00;108176;1274;69853;-68
2021/12/01 01:28:04;;;;;;;8.50;6.00;;;;;;;-0.23;70.32;96085.30;108045;1274;67875;-68
2021/12/01 01:30:34;;;;;;;6.80;4.70;;;;;;;-0.27;70.27;96083.48;108020;1272;67623;-68
2021/12/01 01:33:03;;;;;;;7.00;5.60;;;;;;;-0.28;70.45;96088.48;108049;1272;59758;-68
2021/12/01 01:35:33;;;;;;;9.00;6.10;;;;;;;-0.33;70.59;96080.34;108026;1276;59674;-67
2021/12/01 01:38:02;;;;;;;7.80;5.90;;;;;;;-0.35;70.69;96076.16;108136;1272;70811;-68
2021/12/01 01:40:32;;;;;;;8.20;6.40;;;;;;;-0.34;70.80;96081.27;108140;1272;67812;-68
2021/12/01 01:43:01;;;;;;;9.00;6.10;;;;;;;-0.31;70.67;96077.34;107818;1277;69479;-68
2021/12/01 01:45:31;;;;;;;8.50;5.70;;;;;;;-0.36;70.85;96083.24;107806;1274;59788;-68
2021/12/01 01:48:08;;;;;;;8.20;5.90;;;;;;;-0.37;70.93;96073.01;108180;1271;59696;-69
2021/12/01 01:50:42;;;;;;;9.00;6.20;;;;;;;-0.36;71.05;96066.42;108132;1275;71375;-69
2021/12/01 01:53:13;;;;;;;7.20;4.70;;;;;;;-0.37;71.06;96063.08;108014;1275;67212;-68
2021/12/01 01:55:50;;;;;;;7.60;5.40;;;;;;;-0.39;71.16;96061.11;108058;1272;68781;-67
2021/12/01 01:58:24;;;;;;;7.50;4.80;;;;;;;-0.37;71.20;96061.00;107799;1275;59789;-67
2021/12/01 02:01:06;;;;;;;8.10;5.90;;;;;;;-0.37;71.20;96061.87;108124;1272;59774;-68
2021/12/01 02:03:42;;;;;;;7.00;4.90;;;;;;;-0.36;71.28;96060.27;108128;1272;70787;-67
2021/12/01 02:06:14;;;;;;;7.10;6.00;;;;;;;-0.37;71.29;96055.55;108019;1273;68597;-67
2021/12/01 02:08:45;;;;;;;6.30;4.00;;;;;;;-0.30;71.12;96052.48;108031;1275;69295;-67
2021/12/01 02:11:17;;;;;;;5.60;4.90;;;;;;;-0.27;71.01;96057.10;108117;1271;59821;-67
2021/12/01 02:13:49;;;;;;;6.60;4.70;;;;;;;-0.21;70.89;96060.90;108024;1272;59702;-68
2021/12/01 02:16:20;;;;;;;5.80;4.60;;;;;;;-0.24;71.29;96060.89;108170;1272;71443;-68
2021/12/01 02:18:51;;;;;;;4.90;3.70;;;;;;;-0.24;71.51;96064.82;108179;1272;68621;-67
2021/12/01 02:21:30;;;;;;;;;;;;;;;-0.18;71.31;96072.20;107998;1275;68844;-67
2021/12/01 02:24:08;;;;;;;6.40;5.50;;;;;;;-0.16;71.28;96078.80;108079;1272;59783;-68
2021/12/01 02:26:44;;;;;;;4.80;4.30;;;;;;;-0.18;71.63;96070.70;108058;1276;59698;-67
2021/12/01 02:29:20;;;;;;;5.50;4.30;;;;;;;-0.16;71.69;96076.73;108126;1274;71530;-68
2021/12/01 02:31:52;;;;;;;6.60;5.50;;;;;;;-0.17;71.88;96072.66;108047;1272;67490;-67
2021/12/01 02:34:25;;;;;;;5.80;4.00;;;;;;;-0.16;72.07;96078.63;107914;1276;69458;-68
2021/12/01 02:36:57;;;;;;;5.40;4.10;;;;;;;-0.20;72.30;96078.97;108060;1272;59743;-68
2021/12/01 02:39:29;;;;;;;3.80;3.10;;;;;;;-0.20;72.71;96075.21;108082;1275;59710;-67
2021/12/01 02:42:05;;;;;;;7.30;5.10;;;;;;;-0.20;73.25;96073.54;107948;1275;70567;-67
2021/12/01 02:44:36;;;;;;;6.60;4.60;;;;;;;-0.16;72.98;96074.52;108141;1274;68446;-67
2021/12/01 02:47:06;;;;;;;;;;;;;;;-0.18;73.29;96081.80;108048;1272;69241;-67
2021/12/01 02:49:36;;;;;;;6.20;4.30;;;;;;;-0.18;73.44;96080.59;108138;1270;59659;-67
2021/12/01 02:52:06;;;;;;;5.40;4.50;;;;;;;-0.22;74.20;96071.55;108109;1274;59706;-67
2021/12/01 02:54:36;;;;;;;6.20;5.50;;;;;;;-0.20;73.81;96068.55;108022;1272;72172;-67
2021/12/01 02:57:05;;;;;;;6.20;4.00;;;;;;;-0.20;73.93;96075.73;108049;1274;67903;-67
2021/12/01 02:59:38;;;;;;;7.00;5.60;;;;;;;-0.23;74.39;96083.27;108110;1274;70385;-67
2021/12/01 03:02:09;;;;;;;5.90;5.30;;;;;;;-0.17;73.83;96079.35;108084;1272;59709;-67
2021/12/01 03:04:39;;;;;;;6.70;5.70;;;;;;;-0.18;73.90;96084.89;108068;1272;59794;-67
2021/12/01 03:07:11;;;;;;;7.20;5.50;;;;;;;-0.16;73.85;96099.16;108127;1272;71414;-68
2021/12/01 03:09:42;;;;;;;5.50;4.40;;;;;;;-0.17;73.85;96094.45;107912;1276;68580;-67
2021/12/01 03:12:11;;;;;;;6.30;4.80;;;;;;;-0.21;74.07;96096.49;107978;1276;68962;-67
2021/12/01 03:14:42;;;;;;;6.30;4.20;;;;;;;-0.19;74.17;96098.12;108027;1268;59769;-67
2021/12/01 03:17:13;;;;;;;5.50;3.90;;;;;;;-0.20;74.19;96092.88;107988;1275;59674;-68
2021/12/01 03:19:43;;;;;;;;;;;;;;;-0.19;74.44;96093.31;108167;1272;71624;-67
2021/12/01 03:22:16;;;;;;;7.20;4.70;;;;;;;-0.20;74.35;96093.86;108122;1275;67732;-67
2021/12/01 03:24:46;;;;;;;5.00;3.80;;;;;;;-0.20;74.62;96100.56;107998;1272;69663;-67
2021/12/01 03:27:16;;;;;;;4.00;3.40;;;;;;;-0.17;74.78;96109.68;108002;1275;60230;-67
2021/12/01 03:29:48;;;;;;;5.70;5.00;;;;;;;-0.18;74.96;96117.09;108046;1276;59672;-67
2021/12/01 03:32:20;;;;;;;7.40;5.50;;;;;;;-0.10;74.45;96120.79;108032;1272;69631;-67
2021/12/01 03:34:50;;;;;;;6.10;5.00;;;;;;;-0.13;74.77;96119.05;107942;1275;68609;-67
2021/12/01 03:37:20;;;;;;;6.60;5.40;;;;;;;-0.13;75.12;96126.74;108090;1272;69308;-67
2021/12/01 03:39:49;;;;;;;9.80;7.40;;;;;;;-0.15;75.44;96128.91;108047;1272;59717;-67
2021/12/01 03:42:19;;;;;;;7.70;5.80;;;;;;;-0.19;76.23;96130.31;108004;1272;59763;-66
2021/12/01 03:44:50;;;;;;;10.10;7.20;;;;;;;-0.25;76.94;96130.79;108103;1272;70783;-67
2021/12/01 03:47:20;;;;;;;11.30;7.90;;;;;;;-0.28;77.75;96134.34;108061;1275;68623;-68
2021/12/01 03:49:50;;;;;;;;;;;;;;;-0.30;78.36;96135.99;107988;1275;69328;-66
2021/12/01 03:52:21;;;;;;;10.20;7.00;;;;;;;-0.34;78.77;96126.59;107851;1277;59668;-66
2021/12/01 03:54:52;;;;;;;12.00;9.00;;;;;;;-0.35;79.07;96132.99;107959;1275;59730;-67
2021/12/01 03:57:22;;;;;;;11.60;7.60;;;;;;;-0.36;79.18;96128.94;108030;1275;70543;-66
2021/12/01 03:59:52;;;;;;;8.00;6.60;;;;;;;-0.41;79.70;96134.52;108058;1271;68599;-67
2021/12/01 04:02:22;;;;;;;11.60;7.40;;;;;;;-0.43;80.01;96138.37;108097;1272;69416;-66
2021/12/01 04:04:52;;;;;;;8.70;6.30;;;;;;;-0.43;80.33;96140.23;108130;1275;59770;-66
2021/12/01 04:07:21;;;;;;;10.40;7.20;;;;;;;-0.41;80.36;96141.35;108110;1276;59726;-66
2021/12/01 04:09:52;;;;;;;10.80;8.50;;;;;;;-0.33;79.82;96139.39;107893;1276;71550;-66
2021/12/01 04:12:25;;;;;;;8.60;6.40;;;;;;;-0.32;80.19;96134.05;108118;1276;68686;-66
2021/12/01 04:14:54;;;;;;;10.90;8.20;;;;;;;-0.31;80.22;96146.52;108117;1271;68878;-66
2021/12/01 04:17:24;;;;;;;7.20;5.90;;;;;;;-0.29;80.09;96153.05;108062;1273;59696;-66
2021/12/01 04:19:53;;;;;;;11.60;8.50;;;;;;;-0.25;79.76;96153.36;107919;1278;60087;-67
2021/12/01 04:22:24;;;;;;;9.90;7.90;;;;;;;-0.17;79.32;96156.77;108057;1272;71682;-67
2021/12/01 04:24:53;;;;;;;10.00;7.70;;;;;;;-0.25;80.21;96154.58;107965;1272;68740;-66
2021/12/01 04:27:22;;;;;;;9.30;7.00;;;;;;;-0.26;80.46;96155.01;107827;1277;68429;-67
2021/12/01 04:29:54;;;;;;;10.10;7.60;;;;;;;-0.27;80.68;96156.39;107933;1275;59706;-66
2021/12/01 04:32:24;;;;;;;15.30;9.80;;;;;;;-0.28;80.89;96159.02;108067;1272;60177;-67
2021/12/01 04:34:53;;;;;;;8.30;6.80;;;;;;;-0.29;81.18;96162.46;107993;1276;70735;-66
2021/12/01 04:37:23;;;;;;;9.50;6.50;;;;;;;-0.29;81.00;96169.02;108036;1275;68511;-66
2021/12/01 04:39:53;;;;;;;9.40;7.20;;;;;;;-0.30;80.96;96178.63;107979;1272;69255;-67
2021/12/01 04:42:22;;;;;;;;;;;;;;;-0.32;81.63;96183.03;108117;1272;59639;-66
2021/12/01 04:44:52;;;;;;;7.30;6.00;;;;;;;-0.33;81.78;96181.52;108048;1276;59668;-67
2021/12/01 04:47:28;;;;;;;7.00;5.20;;;;;;;-0.34;81.03;96193.35;108022;1272;70683;-67
2021/12/01 04:49:57;;;;;;;6.40;5.50;;;;;;;-0.33;81.70;96197.46;108050;1272;68632;-67
2021/12/01 04:52:26;;;;;;;7.30;6.50;;;;;;;-0.34;81.67;96203.30;107999;1273;68675;-67
2021/12/01 04:54:56;;;;;;;6.10;4.90;;;;;;;-0.33;81.88;96199.48;107894;1276;59770;-67
2021/12/01 04:57:25;;;;;;;5.50;4.30;;;;;;;-0.40;82.20;96204.81;108008;1276;59728;-67
2021/12/01 04:59:54;;;;;;;7.70;5.50;;;;;;;-0.44;83.08;96205.33;107973;1276;71712;-66
2021/12/01 05:02:24;;;;;;;7.40;6.00;;;;;;;-0.39;82.21;96209.39;107889;1276;68799;-67
2021/12/01 05:04:53;;;;;;;5.90;4.30;;;;;;;-0.40;82.54;96211.32;108087;1273;69467;-67
2021/12/01 05:07:23;;;;;;;5.30;4.70;;;;;;;-0.44;83.34;96211.02;107941;1276;59716;-66
2021/12/01 05:09:54;;;;;;;4.40;3.80;;;;;;;-0.45;82.94;96213.77;107959;1274;59718;-67
2021/12/01 05:12:23;;;;;;;6.80;6.00;;;;;;;-0.48;82.98;96218.72;108076;1276;70701;-66
2021/12/01 05:14:53;;;;;;;7.00;4.50;;;;;;;-0.46;82.86;96223.08;108040;1272;67836;-67
2021/12/01 05:17:22;;;;;;;7.30;5.30;;;;;;;-0.47;82.72;96227.08;107909;1276;69662;-67
2021/12/01 05:19:52;;;;;;;5.70;4.50;;;;;;;-0.45;82.76;96232.80;108006;1272;59728;-66
2021/12/01 05:22:21;;;;;;;6.00;5.10;;;;;;;-0.46;83.08;96239.51;108013;1276;59710;-67
2021/12/01 05:24:50;;;;;;;6.20;4.40;;;;;;;-0.44;82.82;96236.65;108089;1273;71226;-67
2021/12/01 05:27:20;;;;;;;6.60;4.40;;;;;;;-0.46;84.13;96244.46;108100;1275;68431;-67
2021/12/01 05:29:49;;;;;;;5.10;4.20;;;;;;;-0.45;83.64;96249.56;108101;1275;68666;-66
2021/12/01 05:32:20;;;;;;;6.90;5.30;;;;;;;-0.45;84.00;96258.80;108018;1272;59944;-66
2021/12/01 05:34:49;;;;;;;7.70;5.20;;;;;;;-0.43;83.51;96262.27;107964;1276;59768;-66
2021/12/01 05:37:18;;;;;;;6.50;5.00;;;;;;;-0.40;82.89;96264.54;107739;1275;71534;-67
2021/12/01 05:39:48;;;;;;;8.30;6.30;;;;;;;-0.39;83.61;96269.13;108052;1272;68628;-68
2021/12/01 05:42:17;;;;;;;7.40;6.20;;;;;;;-0.36;82.92;96269.83;108015;1272;67750;-66
2021/12/01 05:44:47;;;;;;;10.60;8.30;;;;;;;-0.36;82.85;96270.86;108077;1272;59709;-66
2021/12/01 05:47:16;;;;;;;11.20;9.80;;;;;;;-0.35;82.82;96277.51;108174;1275;59757;-66
2021/12/01 05:49:45;;;;;;;12.20;9.00;;;;;;;-0.33;83.14;96279.10;108046;1275;71758;-67
2021/12/01 05:52:15;;;;;;;12.80;9.30;;;;;;;-0.31;82.88;96280.55;108100;1275;67813;-66
2021/12/01 05:54:50;;;;;;;14.70;9.80;;;;;;;-0.28;82.74;96285.89;107925;1277;68883;-66
2021/12/01 05:57:19;;;;;;;12.60;9.80;;;;;;;-0.26;82.79;96285.98;108055;1276;59732;-67
2021/12/01 05:59:48;;;;;;;9.90;8.60;;;;;;;-0.28;82.67;96289.65;107990;1276;59770;-66
2021/12/01 06:02:17;;;;;;;13.70;9.90;;;;;;;-0.29;82.87;96292.42;108138;1273;71420;-66
2021/12/01 06:04:48;;;;;;;12.10;8.40;;;;;;;-0.26;82.47;96291.61;108169;1272;68526;-67
2021/12/01 06:07:17;;;;;;;12.70;10.20;;;;;;;-0.22;82.49;96290.77;108085;1275;70073;-67
2021/12/01 06:09:46;;;;;;;11.50;8.80;;;;;;;-0.19;82.38;96292.30;108163;1275;59741;-66
2021/12/01 06:12:15;;;;;;;10.80;8.80;;;;;;;-0.18;82.24;96301.16;108063;1275;59712;-66
2021/12/01 06:14:45;;;;;;;8.80;7.00;;;;;;;-0.14;82.20;96306.62;108058;1272;71569;-66
2021/12/01 06:17:14;;;;;;;7.80;6.10;;;;;;;-0.11;82.20;96318.28;107777;1273;437096;-66
2021/12/01 06:19:43;;;;;;;8.50;7.00;;;;;;;-0.06;81.92;96324.40;108009;1276;69914;-66
2021/12/01 06:22:12;;;;;;;8.30;6.80;;;;;;;-0.05;82.06;96329.65;108051;1275;59716;-66
2021/12/01 06:24:41;;;;;;;8.20;6.60;;;;;;;-0.04;82.11;96332.16;108115;1272;59773;-66
2021/12/01 06:27:11;;;;;;;7.10;5.90;;;;;;;0.02;82.03;96339.81;108032;1272;70849;-67
2021/12/01 06:29:40;;;;;;;8.50;7.30;;;;;;;0.04;81.71;96342.79;108091;1274;67681;-66
2021/12/01 06:32:09;;;;;;;11.20;8.80;;;;;;;0.05;81.73;96344.77;107978;1272;69471;-67
2021/12/01 06:34:38;;;;;;;12.20;9.50;;;;;;;0.08;81.68;96350.28;108101;1273;59768;-68
2021/12/01 06:37:07;;;;;;;12.00;9.40;;;;;;;0.07;81.96;96355.34;108051;1275;59713;-67
2021/12/01 06:39:36;;;;;;;10.60;9.50;;;;;;;0.09;81.82;96360.02;108081;1272;71603;-67
2021/12/01 06:42:05;;;;;;;11.40;8.60;;;;;;;0.09;81.76;96363.42;107951;1273;69367;-67
2021/12/01 06:44:34;;;;;;;12.00;10.30;;;;;;;0.11;81.93;96364.72;107938;1276;68314;-68
2021/12/01 06:47:03;;;;;;;13.00;10.00;;;;;;;0.13;81.98;96371.27;107921;1276;59699;-68
2021/12/01 06:49:32;;;;;;;15.60;10.10;;;;;;;0.12;81.96;96378.67;108023;1276;59665;-69
2021/12/01 06:52:01;;;;;;;8.80;7.60;;;;;;;0.13;81.99;96385.16;108078;1272;71634;-67
2021/12/01 06:54:30;;;;;;;12.70;9.10;;;;;;;0.08;82.19;96391.25;108063;1272;67876;-68
2021/12/01 06:56:59;;;;;;;9.00;6.80;;;;;;;0.06;82.36;96390.79;108044;1273;68585;-68
2021/12/01 06:59:28;;;;;;;13.10;9.70;;;;;;;0.05;82.63;96397.53;108075;1272;59716;-68
2021/12/01 07:01:57;;;;;;;12.40;8.20;;;;;;;0.09;82.33;96398.89;108097;1273;59771;-68
2021/12/01 07:04:26;;;;;;;12.30;8.40;;;;;;;0.11;82.25;96401.35;108094;1272;71751;-69
2021/12/01 07:06:55;;;;;;;11.70;9.70;;;;;;;0.12;82.49;96406.27;108075;1275;68955;-69
2021/12/01 07:09:25;;;;;;;8.30;6.60;;;;;;;0.16;82.24;96409.53;108072;1275;69477;-68
2021/12/01 07:11:55;;;;;;;11.50;8.90;;;;;;;0.16;82.33;96417.39;108114;1272;59768;-69
2021/12/01 07:14:24;;;;;;;13.00;10.00;;;;;;;0.17;82.25;96416.18;107871;1275;59711;-69
2021/12/01 07:16:52;;;;;;;11.70;9.60;;;;;;;0.15;82.47;96423.29;108112;1274;71560;-68
2021/12/01 07:19:22;;;;;;;14.70;10.60;;;;;;;0.18;82.58;96425.21;108023;1275;68081;-68
2021/12/01 07:21:51;;;;;;;14.40;10.80;;;;;;;0.21;82.36;96431.53;107802;1275;68611;-68
2021/12/01 07:24:20;;;;;;;11.40;8.60;;;;;;;0.23;82.37;96430.26;107941;1277;59830;-67
2021/12/01 07:26:50;;;;;;;11.70;9.10;;;;;;;0.25;82.42;96433.60;107930;1276;59716;-67
2021/12/01 07:29:18;;;;;;;14.00;10.50;;;;;;;0.30;82.44;96437.82;108023;1276;72000;-67
2021/12/01 07:31:48;;;;;;;13.20;10.10;;;;;;;0.32;82.38;96441.15;107962;1276;68698;-68
2021/12/01 07:34:17;;;;;;;15.10;12.10;;;;;;;0.32;82.31;96445.75;108037;1272;68442;-68
2021/12/01 07:36:46;;;;;;;13.50;10.20;;;;;;;0.38;82.43;96448.90;108021;1271;59702;-67
2021/12/01 07:39:15;;;;;;;11.90;8.30;;;;;;;0.34;82.51;96456.82;107960;1272;59719;-68
2021/12/01 07:41:44;;;;;;;14.80;10.90;;;;;;;0.36;83.22;96462.58;107799;1277;70752;-67
2021/12/01 07:44:13;;;;;;;11.60;7.90;;;;;;;0.39;83.08;96466.86;107957;1276;68643;-67
2021/12/01 07:46:42;;;;;;;12.10;9.10;;;;;;;0.42;83.10;96473.55;108007;1273;70064;-67
2021/12/01 07:49:11;;;;;;;13.80;11.60;;;;;;;0.46;82.83;96474.43;108074;1275;59709;-69
2021/12/01 07:51:40;;;;;;;20.00;13.20;;;;;;;0.50;82.77;96476.45;107748;1278;59828;-67
2021/12/01 07:54:09;;;;;;;43.90;25.00;;;;;;;0.50;82.78;96482.14;107978;1272;70676;-68
2021/12/01 07:56:37;;;;;;;13.10;10.30;;;;;;;0.52;82.74;96483.42;107961;1276;68595;-68
2021/12/01 07:59:06;;;;;;;13.20;8.60;;;;;;;0.54;82.74;96488.47;108025;1272;69508;-68
2021/12/01 08:01:35;;;;;;;12.00;8.90;;;;;;;0.55;82.97;96491.34;108058;1276;59826;-68
2021/12/01 08:04:04;;;;;;;12.30;8.60;;;;;;;0.61;82.55;96494.64;108089;1275;59709;-69
2021/12/01 08:06:35;;;;;;;24.70;16.20;;;;;;;0.62;82.42;96498.89;107862;1276;71566;-69
2021/12/01 08:09:04;;;;;;;;;;;;;;;0.65;82.27;96497.67;107972;1276;67905;-69
2021/12/01 08:11:34;;;;;;;22.50;13.60;;;;;;;0.68;81.96;96505.78;108017;1272;68947;-68
2021/12/01 08:14:03;;;;;;;74.60;39.40;;;;;;;0.70;81.66;96508.77;107977;1273;59752;-68
2021/12/01 08:16:33;;;;;;;41.50;26.20;;;;;;;0.75;81.38;96511.45;107994;1272;59841;-68
2021/12/01 08:19:03;;;;;;;13.60;9.70;;;;;;;0.75;81.33;96512.48;108066;1272;70823;-67
2021/12/01 08:21:33;;;;;;;36.20;23.40;;;;;;;0.79;81.25;96511.78;107895;1276;67858;-68
2021/12/01 08:24:10;;;;;;;16.10;12.00;;;;;;;0.78;81.22;96519.70;107967;1276;69514;-68
2021/12/01 08:26:39;;;;;;;;;;;;;;;0.81;81.16;96527.46;107947;1273;59771;-69
2021/12/01 08:29:09;;;;;;;13.20;9.10;;;;;;;0.82;81.19;96532.21;108084;1276;59769;-69
2021/12/01 08:31:38;;;;;;;13.80;9.30;;;;;;;0.84;81.20;96535.20;107984;1272;71817;-67
2021/12/01 08:34:08;;;;;;;13.90;10.50;;;;;;;0.86;81.19;96535.09;107945;1276;68487;-69
2021/12/01 08:36:37;;;;;;;12.00;8.70;;;;;;;0.89;81.04;96534.63;108020;1272;70008;-67
2021/12/01 08:39:06;;;;;;;12.60;9.90;;;;;;;0.90;81.08;96543.30;107909;1274;59701;-67
2021/12/01 08:41:35;;;;;;;13.80;11.00;;;;;;;0.91;81.05;96546.52;108004;1273;59656;-68
2021/12/01 08:44:04;;;;;;;11.40;9.50;;;;;;;0.95;80.89;96547.69;107994;1272;71327;-68
2021/12/01 08:46:33;;;;;;;10.70;9.40;;;;;;;0.97;80.78;96549.98;107970;1273;68704;-68
2021/12/01 08:49:03;;;;;;;11.00;9.20;;;;;;;1.01;80.81;96540.70;107960;1275;70251;-70
2021/12/01 08:51:32;;;;;;;11.00;8.00;;;;;;;1.07;80.69;96535.30;107938;1272;59696;-68
2021/12/01 08:54:02;;;;;;;13.40;10.60;;;;;;;1.07;81.05;96537.68;107938;1276;59741;-68
2021/12/01 08:56:31;;;;;;;11.10;8.10;;;;;;;1.10;80.82;96536.33;108037;1276;69704;-68
2021/12/01 08:59:00;;;;;;;12.20;8.60;;;;;;;1.14;80.84;96542.52;108056;1272;69183;-68
2021/12/01 09:01:29;;;;;;;12.40;8.90;;;;;;;1.18;80.95;96553.80;108050;1276;69461;-68
2021/12/01 09:04:00;;;;;;;15.40;10.20;;;;;;;1.25;80.57;96560.84;107938;1272;59764;-68
2021/12/01 09:06:30;;;;;;;12.10;9.30;;;;;;;1.26;80.40;96560.29;107908;1274;59778;-68
2021/12/01 09:08:59;;;;;;;13.60;9.60;;;;;;;1.30;80.33;96566.41;108031;1276;71700;-68
2021/12/01 09:11:28;;;;;;;16.90;13.40;;;;;;;1.35;80.49;96574.27;107962;1273;68206;-68
2021/12/01 09:13:57;;;;;;;14.90;10.40;;;;;;;1.40;80.00;96578.66;107986;1275;69028;-67
2021/12/01 09:16:27;;;;;;;18.00;12.10;;;;;;;1.45;79.56;96580.60;108049;1276;59741;-68
2021/12/01 09:18:56;;;;;;;11.50;8.40;;;;;;;1.47;79.57;96586.35;107990;1272;59735;-67
2021/12/01 09:21:25;;;;;;;10.20;6.80;;;;;;;1.55;79.27;96584.25;107929;1276;71541;-68
2021/12/01 09:23:54;;;;;;;8.90;6.50;;;;;;;1.61;79.32;96588.09;108054;1272;68564;-68
2021/12/01 09:26:23;;;;;;;7.50;6.70;;;;;;;1.65;79.25;96585.66;108050;1272;69312;-68
2021/12/01 09:28:52;;;;;;;9.50;7.80;;;;;;;1.73;78.48;96580.77;108077;1274;59719;-70
2021/12/01 09:31:21;;;;;;;8.20;7.00;;;;;;;1.78;77.55;96582.92;108112;1275;59717;-69
2021/12/01 09:33:49;;;;;;;9.10;6.30;;;;;;;1.82;77.73;96589.06;108072;1272;71385;-68
2021/12/01 09:36:19;;;;;;;6.40;5.70;;;;;;;1.87;77.85;96597.56;108091;1274;67828;-68
2021/12/01 09:38:48;;;;;;;9.20;6.50;;;;;;;1.95;77.85;96597.70;108051;1273;69569;-68
2021/12/01 09:41:17;;;;;;;7.50;5.80;;;;;;;2.03;77.13;96598.63;108067;1273;59802;-67
2021/12/01 09:43:46;;;;;;;8.00;5.60;;;;;;;2.09;77.23;96600.92;108127;1273;59729;-68
2021/12/01 09:46:16;;;;;;;8.20;6.20;;;;;;;2.17;77.10;96605.16;108088;1272;70612;-69
2021/12/01 09:48:45;;;;;;;9.50;8.10;;;;;;;2.24;76.90;96604.91;108073;1273;67887;-68
2021/12/01 09:51:17;;;;;;;10.80;8.40;;;;;;;2.27;76.94;96613.55;108115;1273;68771;-68
2021/12/01 09:53:46;;;;;;;9.60;8.00;;;;;;;2.31;76.38;96610.62;108086;1272;59781;-69
2021/12/01 09:56:16;;;;;;;10.50;8.70;;;;;;;2.31;76.58;96613.70;108013;1274;59782;-68
2021/12/01 09:58:46;;;;;;;12.50;9.50;;;;;;;2.38;76.22;96616.77;107897;1273;71634;-68
2021/12/01 10:01:18;;;;;;;8.20;7.20;;;;;;;2.40;75.90;96616.47;108002;1275;68483;-68
2021/12/01 10:03:47;;;;;;;10.80;9.10;;;;;;;2.41;76.02;96617.48;108192;1272;67666;-69
2021/12/01 10:06:22;;;;;;;10.80;8.00;;;;;;;2.49;75.82;96621.48;107967;1275;59795;-68
2021/12/01 10:08:57;;;;;;;9.40;6.50;;;;;;;2.56;75.20;96623.87;107974;1274;59725;-69
2021/12/01 10:11:32;;;;;;;8.60;6.50;;;;;;;2.60;75.28;96628.01;107825;1273;71393;-68
2021/12/01 10:14:09;;;;;;;8.90;6.50;;;;;;;2.66;75.36;96627.81;108034;1272;68490;-68
2021/12/01 10:16:41;;;;;;;7.80;6.70;;;;;;;2.75;74.95;96627.52;108086;1272;69475;-69
2021/12/01 10:19:14;;;;;;;8.80;6.80;;;;;;;2.84;73.68;96628.94;108083;1272;59776;-67
2021/12/01 10:21:47;;;;;;;8.10;5.60;;;;;;;2.79;73.76;96632.12;107886;1272;59719;-66
2021/12/01 10:24:24;;;;;;;7.10;5.80;;;;;;;2.76;74.09;96630.91;108115;1273;70756;-67
2021/12/01 10:26:56;;;;;;;8.90;6.90;;;;;;;2.77;74.06;96632.40;107905;1275;67865;-66
2021/12/01 10:29:27;;;;;;;11.10;6.50;;;;;;;2.79;73.93;96637.08;108081;1272;69497;-66
2021/12/01 10:32:15;;;;;;;11.00;8.10;;;;;;;2.78;74.10;96634.92;107965;1274;59735;-67
2021/12/01 10:34:53;;;;;;;10.70;8.40;;;;;;;2.77;74.09;96636.88;108124;1272;59716;-67
2021/12/01 10:37:26;;;;;;;12.70;8.50;;;;;;;2.76;74.09;96638.98;107928;1272;71145;-66
2021/12/01 10:40:24;;;;;;;10.00;7.10;;;;;;;2.74;74.00;96641.48;108107;1272;68599;-67
2021/12/01 10:42:58;;;;;;;8.60;6.20;;;;;;;2.72;74.15;96639.04;108114;1274;68617;-67
2021/12/01 10:45:32;;;;;;;10.70;8.30;;;;;;;2.76;73.96;96639.66;107847;1276;59706;-67
2021/12/01 10:48:04;;;;;;;8.60;6.90;;;;;;;2.77;73.68;96643.93;107930;1276;59767;-68
2021/12/01 10:50:36;;;;;;;7.60;6.20;;;;;;;2.75;74.25;96650.73;108014;1275;70748;-67
2021/12/01 10:53:12;;;;;;;9.30;6.40;;;;;;;2.80;73.95;96646.16;108135;1272;67890;-67
2021/12/01 10:55:55;;;;;;;14.80;12.10;;;;;;;2.84;73.72;96649.39;107938;1275;68532;-67
2021/12/01 10:58:38;;;;;;;12.50;10.70;;;;;;;2.86;73.53;96644.79;107880;1277;59766;-69
2021/12/01 11:01:24;;;;;;;8.70;7.60;;;;;;;2.89;73.32;96645.19;107784;1275;59771;-67
2021/12/01 11:03:54;;;;;;;8.40;6.20;;;;;;;2.92;73.53;96644.18;107938;1275;70928;-68
2021/12/01 11:06:25;;;;;;;7.70;6.40;;;;;;;2.95;73.80;96643.98;107823;1273;68439;-67
2021/12/01 11:08:58;;;;;;;9.50;7.00;;;;;;;2.99;73.28;96644.94;107738;1275;68548;-67
2021/12/01 11:11:42;;;;;;;8.80;6.40;;;;;;;3.04;72.94;96640.91;107628;1277;59766;-67
2021/12/01 11:14:42;;;;;;;8.30;5.80;;;;;;;3.06;72.97;96640.29;107889;1274;59730;-67
2021/12/01 11:17:13;;;;;;;8.70;7.10;;;;;;;3.13;72.91;96640.45;107808;1275;70820;-67
2021/12/01 11:19:44;;;;;;;9.90;8.30;;;;;;;3.17;72.52;96645.71;107803;1278;67956;-69
2021/12/01 11:22:30;;;;;;;16.50;12.50;;;;;;;3.22;72.42;96643.35;107837;1276;68039;-68
2021/12/01 11:25:22;;;;;;;9.90;8.00;;;;;;;3.28;72.01;96639.21;107875;1274;59725;-67
2021/12/01 11:27:52;;;;;;;10.90;9.30;;;;;;;3.34;71.54;96639.75;107793;1275;59796;-68
2021/12/01 11:30:24;;;;;;;12.30;9.60;;;;;;;3.43;71.36;96636.52;107705;1275;72004;-67
2021/12/01 11:33:17;;;;;;;12.80;10.70;;;;;;;3.48;71.07;96633.64;107837;1276;67925;-69
2021/12/01 11:35:53;;;;;;;21.40;16.10;;;;;;;3.58;70.89;96628.08;107678;1276;69461;-68
2021/12/01 11:38:23;;;;;;;12.90;9.50;;;;;;;3.73;70.63;96629.11;107948;1276;59780;-67
2021/12/01 11:40:54;;;;;;;10.30;7.60;;;;;;;3.87;70.77;96630.52;107763;1278;59761;-68
2021/12/01 11:43:28;;;;;;;9.90;7.60;;;;;;;4.00;70.38;96628.55;107790;1276;71558;-69
2021/12/01 11:45:59;;;;;;;9.90;7.80;;;;;;;4.10;70.19;96626.59;107964;1273;67916;-70
2021/12/01 11:48:32;;;;;;;10.70;8.80;;;;;;;4.19;69.31;96622.94;107854;1274;68463;-68
2021/12/01 11:51:07;;;;;;;8.80;7.90;;;;;;;4.22;68.75;96623.09;107688;1276;59777;-68